sensor_id;sensor_type;location;lat;lon;timestamp;temperature;humidity
22787;DHT22;63134;52.020;4.714;2023-03-23T00:01:53;14.50;87.80
22787;DHT22;63134;52.020;4.714;2023-03-23T00:04:41;14.40;87.70
22787;DHT22;63134;52.020;4.714;2023-03-23T00:07:26;14.50;87.50
22787;DHT22;63134;52.020;4.714;2023-03-23T00:10:11;14.40;87.60
22787;DHT22;63134;52.020;4.714;2023-03-23T00:12:59;14.40;87.70
22787;DHT22;63134;52.020;4.714;2023-03-23T00:15:50;14.30;87.90
22787;DHT22;63134;52.020;4.714;2023-03-23T00:18:35;14.40;87.80
22787;DHT22;63134;52.020;4.714;2023-03-23T00:21:21;14.30;87.80
22787;DHT22;63134;52.020;4.714;2023-03-23T00:24:11;14.20;88.20
22787;DHT22;63134;52.020;4.714;2023-03-23T00:26:56;14.30;89.00
22787;DHT22;63134;52.020;4.714;2023-03-23T00:29:43;14.30;88.00
22787;DHT22;63134;52.020;4.714;2023-03-23T00:32:29;14.20;88.10
22787;DHT22;63134;52.020;4.714;2023-03-23T00:35:14;14.20;88.10
22787;DHT22;63134;52.020;4.714;2023-03-23T00:37:59;14.40;87.10
22787;DHT22;63134;52.020;4.714;2023-03-23T00:40:44;14.30;87.50
22787;DHT22;63134;52.020;4.714;2023-03-23T00:43:29;14.30;87.30
22787;DHT22;63134;52.020;4.714;2023-03-23T00:46:14;14.30;87.30
22787;DHT22;63134;52.020;4.714;2023-03-23T00:48:58;14.30;87.00
22787;DHT22;63134;52.020;4.714;2023-03-23T00:51:44;14.30;87.10
22787;DHT22;63134;52.020;4.714;2023-03-23T00:54:29;14.20;87.20
22787;DHT22;63134;52.020;4.714;2023-03-23T00:57:13;14.30;86.90
22787;DHT22;63134;52.020;4.714;2023-03-23T01:00:00;14.30;87.00
22787;DHT22;63134;52.020;4.714;2023-03-23T01:02:45;14.30;87.00
22787;DHT22;63134;52.020;4.714;2023-03-23T01:05:33;14.30;87.10
22787;DHT22;63134;52.020;4.714;2023-03-23T01:08:19;14.20;87.10
22787;DHT22;63134;52.020;4.714;2023-03-23T01:11:06;14.20;87.50
22787;DHT22;63134;52.020;4.714;2023-03-23T01:13:51;14.20;87.30
22787;DHT22;63134;52.020;4.714;2023-03-23T01:16:38;14.20;87.10
22787;DHT22;63134;52.020;4.714;2023-03-23T01:19:22;14.20;87.00
22787;DHT22;63134;52.020;4.714;2023-03-23T01:22:07;14.10;87.40
22787;DHT22;63134;52.020;4.714;2023-03-23T01:24:54;14.20;87.40
22787;DHT22;63134;52.020;4.714;2023-03-23T01:27:39;14.10;87.60
22787;DHT22;63134;52.020;4.714;2023-03-23T01:30:27;14.10;87.40
22787;DHT22;63134;52.020;4.714;2023-03-23T01:33:17;14.20;87.30
22787;DHT22;63134;52.020;4.714;2023-03-23T01:36:06;14.10;87.30
22787;DHT22;63134;52.020;4.714;2023-03-23T01:38:51;14.10;87.30
22787;DHT22;63134;52.020;4.714;2023-03-23T01:41:35;14.10;87.30
22787;DHT22;63134;52.020;4.714;2023-03-23T01:47:28;14.20;87.10
22787;DHT22;63134;52.020;4.714;2023-03-23T01:50:13;14.30;86.20
22787;DHT22;63134;52.020;4.714;2023-03-23T01:52:59;14.20;86.70
22787;DHT22;63134;52.020;4.714;2023-03-23T01:55:45;14.20;86.90
22787;DHT22;63134;52.020;4.714;2023-03-23T01:58:36;14.20;86.80
22787;DHT22;63134;52.020;4.714;2023-03-23T02:01:21;14.20;87.10
22787;DHT22;63134;52.020;4.714;2023-03-23T02:04:06;14.20;87.00
22787;DHT22;63134;52.020;4.714;2023-03-23T02:06:54;14.30;86.90
22787;DHT22;63134;52.020;4.714;2023-03-23T02:09:41;14.20;87.20
22787;DHT22;63134;52.020;4.714;2023-03-23T02:12:26;14.20;87.80
22787;DHT22;63134;52.020;4.714;2023-03-23T02:15:11;14.20;87.40
22787;DHT22;63134;52.020;4.714;2023-03-23T02:24:34;14.10;88.10
22787;DHT22;63134;52.020;4.714;2023-03-23T02:30:39;14.20;87.60
22787;DHT22;63134;52.020;4.714;2023-03-23T02:34:05;14.10;87.70
22787;DHT22;63134;52.020;4.714;2023-03-23T02:37:03;14.20;87.70
22787;DHT22;63134;52.020;4.714;2023-03-23T02:39:56;14.20;87.70
22787;DHT22;63134;52.020;4.714;2023-03-23T02:42:44;14.20;87.60
22787;DHT22;63134;52.020;4.714;2023-03-23T02:45:30;14.10;87.70
22787;DHT22;63134;52.020;4.714;2023-03-23T02:48:16;14.10;88.50
22787;DHT22;63134;52.020;4.714;2023-03-23T02:51:06;14.00;88.60
22787;DHT22;63134;52.020;4.714;2023-03-23T02:53:53;14.10;88.20
22787;DHT22;63134;52.020;4.714;2023-03-23T02:56:39;14.20;88.20
22787;DHT22;63134;52.020;4.714;2023-03-23T02:59:31;14.20;87.80
22787;DHT22;63134;52.020;4.714;2023-03-23T03:02:25;14.30;87.20
22787;DHT22;63134;52.020;4.714;2023-03-23T03:05:38;14.30;87.10
22787;DHT22;63134;52.020;4.714;2023-03-23T03:11:26;14.30;86.80
22787;DHT22;63134;52.020;4.714;2023-03-23T03:14:17;14.20;87.20
22787;DHT22;63134;52.020;4.714;2023-03-23T03:17:10;14.40;86.60
22787;DHT22;63134;52.020;4.714;2023-03-23T03:20:02;14.30;87.40
22787;DHT22;63134;52.020;4.714;2023-03-23T03:22:52;14.20;88.00
22787;DHT22;63134;52.020;4.714;2023-03-23T03:25:39;14.20;88.20
22787;DHT22;63134;52.020;4.714;2023-03-23T03:28:25;14.10;89.00
22787;DHT22;63134;52.020;4.714;2023-03-23T03:31:17;14.00;88.50
22787;DHT22;63134;52.020;4.714;2023-03-23T03:34:03;13.60;90.10
22787;DHT22;63134;52.020;4.714;2023-03-23T03:36:52;13.40;91.20
22787;DHT22;63134;52.020;4.714;2023-03-23T03:39:37;13.40;91.70
22787;DHT22;63134;52.020;4.714;2023-03-23T03:42:22;13.20;92.00
22787;DHT22;63134;52.020;4.714;2023-03-23T03:45:13;13.10;92.50
22787;DHT22;63134;52.020;4.714;2023-03-23T03:47:57;13.10;92.80
22787;DHT22;63134;52.020;4.714;2023-03-23T03:50:42;13.10;93.00
22787;DHT22;63134;52.020;4.714;2023-03-23T03:53:27;13.00;93.30
22787;DHT22;63134;52.020;4.714;2023-03-23T03:56:11;13.10;93.00
22787;DHT22;63134;52.020;4.714;2023-03-23T03:59:03;13.10;93.00
22787;DHT22;63134;52.020;4.714;2023-03-23T04:02:17;13.00;93.00
22787;DHT22;63134;52.020;4.714;2023-03-23T04:05:05;13.00;93.30
22787;DHT22;63134;52.020;4.714;2023-03-23T04:07:50;13.00;93.60
22787;DHT22;63134;52.020;4.714;2023-03-23T04:10:36;13.00;93.40
22787;DHT22;63134;52.020;4.714;2023-03-23T04:13:22;13.10;93.50
22787;DHT22;63134;52.020;4.714;2023-03-23T04:16:20;13.10;93.30
22787;DHT22;63134;52.020;4.714;2023-03-23T04:19:07;13.20;92.90
22787;DHT22;63134;52.020;4.714;2023-03-23T04:21:51;13.40;92.10
22787;DHT22;63134;52.020;4.714;2023-03-23T04:24:36;13.30;91.90
22787;DHT22;63134;52.020;4.714;2023-03-23T04:27:26;13.30;91.60
22787;DHT22;63134;52.020;4.714;2023-03-23T04:30:13;13.40;91.60
22787;DHT22;63134;52.020;4.714;2023-03-23T04:32:57;13.30;91.60
22787;DHT22;63134;52.020;4.714;2023-03-23T04:35:45;13.30;91.80
22787;DHT22;63134;52.020;4.714;2023-03-23T04:38:37;13.30;91.70
22787;DHT22;63134;52.020;4.714;2023-03-23T04:41:29;13.00;91.60
22787;DHT22;63134;52.020;4.714;2023-03-23T04:44:26;12.80;93.00
22787;DHT22;63134;52.020;4.714;2023-03-23T04:47:23;12.80;93.60
22787;DHT22;63134;52.020;4.714;2023-03-23T04:50:13;12.60;94.20
22787;DHT22;63134;52.020;4.714;2023-03-23T04:53:00;12.50;95.00
22787;DHT22;63134;52.020;4.714;2023-03-23T04:55:48;12.40;95.80
22787;DHT22;63134;52.020;4.714;2023-03-23T04:58:34;12.30;96.40
22787;DHT22;63134;52.020;4.714;2023-03-23T05:01:41;12.30;97.00
22787;DHT22;63134;52.020;4.714;2023-03-23T05:04:37;12.30;97.20
22787;DHT22;63134;52.020;4.714;2023-03-23T05:07:38;12.30;97.40
22787;DHT22;63134;52.020;4.714;2023-03-23T05:10:23;12.20;98.00
22787;DHT22;63134;52.020;4.714;2023-03-23T05:13:09;12.30;98.50
22787;DHT22;63134;52.020;4.714;2023-03-23T05:15:54;12.30;99.10
22787;DHT22;63134;52.020;4.714;2023-03-23T05:18:39;12.20;98.80
22787;DHT22;63134;52.020;4.714;2023-03-23T05:21:26;12.20;99.20
22787;DHT22;63134;52.020;4.714;2023-03-23T05:24:12;12.30;99.20
22787;DHT22;63134;52.020;4.714;2023-03-23T05:27:01;12.20;99.50
22787;DHT22;63134;52.020;4.714;2023-03-23T05:29:52;12.20;99.90
22787;DHT22;63134;52.020;4.714;2023-03-23T05:32:39;12.20;99.90
22787;DHT22;63134;52.020;4.714;2023-03-23T05:35:39;12.20;99.90
22787;DHT22;63134;52.020;4.714;2023-03-23T05:38:24;12.30;99.90
22787;DHT22;63134;52.020;4.714;2023-03-23T05:41:09;12.40;99.90
22787;DHT22;63134;52.020;4.714;2023-03-23T05:43:58;12.30;99.90
22787;DHT22;63134;52.020;4.714;2023-03-23T05:46:52;12.30;99.90
22787;DHT22;63134;52.020;4.714;2023-03-23T05:49:37;12.40;99.90
22787;DHT22;63134;52.020;4.714;2023-03-23T05:52:23;12.30;99.90
22787;DHT22;63134;52.020;4.714;2023-03-23T05:55:10;12.30;99.90
22787;DHT22;63134;52.020;4.714;2023-03-23T05:57:58;12.20;99.90
22787;DHT22;63134;52.020;4.714;2023-03-23T06:00:50;12.30;99.90
22787;DHT22;63134;52.020;4.714;2023-03-23T06:03:40;12.20;99.90
22787;DHT22;63134;52.020;4.714;2023-03-23T06:06:32;12.20;99.90
22787;DHT22;63134;52.020;4.714;2023-03-23T06:09:29;12.20;99.90
22787;DHT22;63134;52.020;4.714;2023-03-23T06:12:39;12.20;99.90
22787;DHT22;63134;52.020;4.714;2023-03-23T06:15:49;12.20;99.90
22787;DHT22;63134;52.020;4.714;2023-03-23T06:19:05;12.30;99.90
22787;DHT22;63134;52.020;4.714;2023-03-23T06:22:01;12.30;99.90
22787;DHT22;63134;52.020;4.714;2023-03-23T06:25:10;12.20;99.90
22787;DHT22;63134;52.020;4.714;2023-03-23T06:28:02;12.20;99.90
22787;DHT22;63134;52.020;4.714;2023-03-23T06:30:48;12.20;99.90
22787;DHT22;63134;52.020;4.714;2023-03-23T06:33:43;12.30;99.90
22787;DHT22;63134;52.020;4.714;2023-03-23T06:36:43;12.30;99.90
22787;DHT22;63134;52.020;4.714;2023-03-23T06:39:33;12.30;99.90
22787;DHT22;63134;52.020;4.714;2023-03-23T06:42:32;12.30;99.90
22787;DHT22;63134;52.020;4.714;2023-03-23T06:45:39;12.30;99.90
22787;DHT22;63134;52.020;4.714;2023-03-23T06:48:53;12.40;99.90
22787;DHT22;63134;52.020;4.714;2023-03-23T06:51:45;12.40;99.90
22787;DHT22;63134;52.020;4.714;2023-03-23T06:54:30;12.50;99.90
22787;DHT22;63134;52.020;4.714;2023-03-23T06:57:17;12.50;99.90
22787;DHT22;63134;52.020;4.714;2023-03-23T07:00:04;12.60;99.90
22787;DHT22;63134;52.020;4.714;2023-03-23T07:02:57;12.60;99.90
22787;DHT22;63134;52.020;4.714;2023-03-23T07:05:45;12.60;99.90
22787;DHT22;63134;52.020;4.714;2023-03-23T07:08:30;12.60;99.90
22787;DHT22;63134;52.020;4.714;2023-03-23T07:11:15;12.60;99.90
22787;DHT22;63134;52.020;4.714;2023-03-23T07:14:02;12.70;99.80
22787;DHT22;63134;52.020;4.714;2023-03-23T07:16:47;12.60;99.40
22787;DHT22;63134;52.020;4.714;2023-03-23T07:19:32;12.70;99.20
22787;DHT22;63134;52.020;4.714;2023-03-23T07:22:16;12.80;98.70
22787;DHT22;63134;52.020;4.714;2023-03-23T07:25:06;12.80;98.20
22787;DHT22;63134;52.020;4.714;2023-03-23T07:28:03;12.80;98.00
22787;DHT22;63134;52.020;4.714;2023-03-23T07:30:48;12.80;97.80
22787;DHT22;63134;52.020;4.714;2023-03-23T07:33:36;12.90;98.00
22787;DHT22;63134;52.020;4.714;2023-03-23T07:36:22;13.00;97.70
22787;DHT22;63134;52.020;4.714;2023-03-23T07:39:06;13.00;97.40
22787;DHT22;63134;52.020;4.714;2023-03-23T07:41:51;13.00;96.80
22787;DHT22;63134;52.020;4.714;2023-03-23T07:44:47;12.90;96.30
22787;DHT22;63134;52.020;4.714;2023-03-23T07:47:32;12.90;95.90
22787;DHT22;63134;52.020;4.714;2023-03-23T07:50:17;12.80;96.10
22787;DHT22;63134;52.020;4.714;2023-03-23T07:53:04;13.00;96.50
22787;DHT22;63134;52.020;4.714;2023-03-23T07:55:50;13.20;96.50
22787;DHT22;63134;52.020;4.714;2023-03-23T07:58:53;13.30;96.50
22787;DHT22;63134;52.020;4.714;2023-03-23T08:01:39;13.40;95.80
22787;DHT22;63134;52.020;4.714;2023-03-23T08:04:43;13.50;95.00
22787;DHT22;63134;52.020;4.714;2023-03-23T08:07:48;13.50;95.00
22787;DHT22;63134;52.020;4.714;2023-03-23T08:10:44;13.40;94.80
22787;DHT22;63134;52.020;4.714;2023-03-23T08:14:04;13.50;94.50
22787;DHT22;63134;52.020;4.714;2023-03-23T08:17:15;13.50;94.20
22787;DHT22;63134;52.020;4.714;2023-03-23T08:20:20;13.50;94.20
22787;DHT22;63134;52.020;4.714;2023-03-23T08:23:25;13.60;94.30
22787;DHT22;63134;52.020;4.714;2023-03-23T08:26:35;13.80;94.20
22787;DHT22;63134;52.020;4.714;2023-03-23T08:29:44;13.90;94.10
22787;DHT22;63134;52.020;4.714;2023-03-23T08:32:38;13.90;94.00
22787;DHT22;63134;52.020;4.714;2023-03-23T08:35:32;14.00;94.00
22787;DHT22;63134;52.020;4.714;2023-03-23T08:38:36;14.10;93.00
22787;DHT22;63134;52.020;4.714;2023-03-23T08:41:47;14.20;92.30
22787;DHT22;63134;52.020;4.714;2023-03-23T08:44:38;14.20;91.70
22787;DHT22;63134;52.020;4.714;2023-03-23T08:47:37;14.30;91.60
22787;DHT22;63134;52.020;4.714;2023-03-23T08:50:53;14.30;91.10
22787;DHT22;63134;52.020;4.714;2023-03-23T08:54:02;14.40;90.00
22787;DHT22;63134;52.020;4.714;2023-03-23T08:57:13;14.40;89.90
22787;DHT22;63134;52.020;4.714;2023-03-23T09:00:29;14.50;90.40
22787;DHT22;63134;52.020;4.714;2023-03-23T09:03:39;14.40;88.60
22787;DHT22;63134;52.020;4.714;2023-03-23T09:06:47;14.40;86.30
22787;DHT22;63134;52.020;4.714;2023-03-23T09:09:32;14.20;86.70
22787;DHT22;63134;52.020;4.714;2023-03-23T09:12:18;14.40;86.30
22787;DHT22;63134;52.020;4.714;2023-03-23T09:15:07;14.30;85.80
22787;DHT22;63134;52.020;4.714;2023-03-23T09:17:52;14.40;85.30
22787;DHT22;63134;52.020;4.714;2023-03-23T09:20:41;14.50;84.60
22787;DHT22;63134;52.020;4.714;2023-03-23T09:23:26;14.50;83.40
22787;DHT22;63134;52.020;4.714;2023-03-23T09:26:11;14.60;82.60
22787;DHT22;63134;52.020;4.714;2023-03-23T09:28:55;14.70;82.30
22787;DHT22;63134;52.020;4.714;2023-03-23T09:31:40;14.70;81.70
22787;DHT22;63134;52.020;4.714;2023-03-23T09:34:25;14.80;82.20
22787;DHT22;63134;52.020;4.714;2023-03-23T09:37:09;15.00;82.30
22787;DHT22;63134;52.020;4.714;2023-03-23T09:39:55;15.00;80.90
22787;DHT22;63134;52.020;4.714;2023-03-23T09:52:17;15.40;77.20
22787;DHT22;63134;52.020;4.714;2023-03-23T09:55:02;15.50;76.90
22787;DHT22;63134;52.020;4.714;2023-03-23T09:58:01;15.60;77.10
22787;DHT22;63134;52.020;4.714;2023-03-23T10:01:06;15.50;76.20
22787;DHT22;63134;52.020;4.714;2023-03-23T10:04:15;15.50;76.80
22787;DHT22;63134;52.020;4.714;2023-03-23T10:07:12;15.50;75.80
22787;DHT22;63134;52.020;4.714;2023-03-23T10:10:00;15.70;74.80
22787;DHT22;63134;52.020;4.714;2023-03-23T10:12:56;15.90;73.80
22787;DHT22;63134;52.020;4.714;2023-03-23T10:15:43;16.00;72.90
22787;DHT22;63134;52.020;4.714;2023-03-23T10:18:41;16.00;73.10
22787;DHT22;63134;52.020;4.714;2023-03-23T10:21:28;16.00;73.00
22787;DHT22;63134;52.020;4.714;2023-03-23T10:24:16;16.00;72.40
22787;DHT22;63134;52.020;4.714;2023-03-23T10:27:34;16.10;72.00
22787;DHT22;63134;52.020;4.714;2023-03-23T10:30:56;16.00;72.30
22787;DHT22;63134;52.020;4.714;2023-03-23T10:33:43;16.00;71.30
22787;DHT22;63134;52.020;4.714;2023-03-23T10:36:34;15.80;71.40
22787;DHT22;63134;52.020;4.714;2023-03-23T10:39:21;15.70;72.00
22787;DHT22;63134;52.020;4.714;2023-03-23T10:42:08;15.90;72.50
22787;DHT22;63134;52.020;4.714;2023-03-23T10:45:09;16.00;71.50
22787;DHT22;63134;52.020;4.714;2023-03-23T10:47:59;16.10;70.00
22787;DHT22;63134;52.020;4.714;2023-03-23T10:50:50;16.10;70.50
22787;DHT22;63134;52.020;4.714;2023-03-23T10:54:00;16.20;70.50
22787;DHT22;63134;52.020;4.714;2023-03-23T10:56:44;16.20;69.50
22787;DHT22;63134;52.020;4.714;2023-03-23T10:59:32;16.40;67.70
22787;DHT22;63134;52.020;4.714;2023-03-23T11:02:17;16.40;67.00
22787;DHT22;63134;52.020;4.714;2023-03-23T11:05:06;16.40;66.90
22787;DHT22;63134;52.020;4.714;2023-03-23T11:07:56;16.50;67.30
22787;DHT22;63134;52.020;4.714;2023-03-23T11:10:56;16.60;67.20
22787;DHT22;63134;52.020;4.714;2023-03-23T11:13:46;16.70;67.20
22787;DHT22;63134;52.020;4.714;2023-03-23T11:16:34;16.90;66.60
22787;DHT22;63134;52.020;4.714;2023-03-23T11:19:25;16.90;63.90
22787;DHT22;63134;52.020;4.714;2023-03-23T11:22:17;16.70;64.90
22787;DHT22;63134;52.020;4.714;2023-03-23T11:25:05;16.60;64.90
22787;DHT22;63134;52.020;4.714;2023-03-23T11:27:50;16.50;64.90
22787;DHT22;63134;52.020;4.714;2023-03-23T11:30:35;16.40;64.60
22787;DHT22;63134;52.020;4.714;2023-03-23T11:33:19;16.40;64.80
22787;DHT22;63134;52.020;4.714;2023-03-23T11:36:06;16.40;65.90
22787;DHT22;63134;52.020;4.714;2023-03-23T11:38:54;16.30;66.70
22787;DHT22;63134;52.020;4.714;2023-03-23T11:41:39;16.60;66.90
22787;DHT22;63134;52.020;4.714;2023-03-23T11:44:32;17.00;66.30
22787;DHT22;63134;52.020;4.714;2023-03-23T11:47:39;17.20;65.40
22787;DHT22;63134;52.020;4.714;2023-03-23T11:50:29;17.90;64.30
22787;DHT22;63134;52.020;4.714;2023-03-23T11:53:37;18.60;61.80
22787;DHT22;63134;52.020;4.714;2023-03-23T11:59:27;19.50;57.90
22787;DHT22;63134;52.020;4.714;2023-03-23T12:05:43;20.60;54.40
22787;DHT22;63134;52.020;4.714;2023-03-23T12:12:22;19.70;56.00
22787;DHT22;63134;52.020;4.714;2023-03-23T12:18:17;20.40;54.60
22787;DHT22;63134;52.020;4.714;2023-03-23T12:21:21;20.40;54.80
22787;DHT22;63134;52.020;4.714;2023-03-23T12:24:27;20.10;54.60
22787;DHT22;63134;52.020;4.714;2023-03-23T12:30:51;19.40;55.40
22787;DHT22;63134;52.020;4.714;2023-03-23T12:33:59;19.10;55.50
22787;DHT22;63134;52.020;4.714;2023-03-23T12:39:50;18.30;56.40
22787;DHT22;63134;52.020;4.714;2023-03-23T12:48:43;17.60;59.40
22787;DHT22;63134;52.020;4.714;2023-03-23T12:51:48;17.40;61.50
22787;DHT22;63134;52.020;4.714;2023-03-23T12:58:01;19.00;60.30
22787;DHT22;63134;52.020;4.714;2023-03-23T13:00:56;19.40;58.70
22787;DHT22;63134;52.020;4.714;2023-03-23T13:03:56;19.90;55.50
22787;DHT22;63134;52.020;4.714;2023-03-23T13:06:44;20.00;54.20
22787;DHT22;63134;52.020;4.714;2023-03-23T13:12:22;19.80;54.20
22787;DHT22;63134;52.020;4.714;2023-03-23T13:15:30;20.10;54.90
22787;DHT22;63134;52.020;4.714;2023-03-23T13:18:44;20.50;52.80
22787;DHT22;63134;52.020;4.714;2023-03-23T13:21:30;20.80;50.40
22787;DHT22;63134;52.020;4.714;2023-03-23T13:24:19;20.80;52.00
22787;DHT22;63134;52.020;4.714;2023-03-23T13:27:06;20.80;51.10
22787;DHT22;63134;52.020;4.714;2023-03-23T13:29:52;21.40;50.40
22787;DHT22;63134;52.020;4.714;2023-03-23T13:32:39;21.30;49.10
22787;DHT22;63134;52.020;4.714;2023-03-23T13:35:25;20.70;51.30
22787;DHT22;63134;52.020;4.714;2023-03-23T13:38:28;20.30;52.90
22787;DHT22;63134;52.020;4.714;2023-03-23T13:41:15;19.90;54.60
22787;DHT22;63134;52.020;4.714;2023-03-23T13:44:19;19.80;54.50
22787;DHT22;63134;52.020;4.714;2023-03-23T13:52:56;19.80;54.10
22787;DHT22;63134;52.020;4.714;2023-03-23T13:55:49;19.50;54.70
22787;DHT22;63134;52.020;4.714;2023-03-23T13:58:45;19.30;56.10
22787;DHT22;63134;52.020;4.714;2023-03-23T14:01:36;20.00;55.30
22787;DHT22;63134;52.020;4.714;2023-03-23T14:04:21;20.50;52.00
22787;DHT22;63134;52.020;4.714;2023-03-23T14:07:11;20.70;51.70
22787;DHT22;63134;52.020;4.714;2023-03-23T14:09:56;21.50;49.90
22787;DHT22;63134;52.020;4.714;2023-03-23T14:12:40;22.80;46.70
22787;DHT22;63134;52.020;4.714;2023-03-23T14:15:29;23.20;46.30
22787;DHT22;63134;52.020;4.714;2023-03-23T14:18:15;24.30;44.40
22787;DHT22;63134;52.020;4.714;2023-03-23T14:21:00;25.30;41.40
22787;DHT22;63134;52.020;4.714;2023-03-23T14:23:44;25.20;40.70
22787;DHT22;63134;52.020;4.714;2023-03-23T14:26:29;25.00;41.30
22787;DHT22;63134;52.020;4.714;2023-03-23T14:29:17;25.70;39.80
22787;DHT22;63134;52.020;4.714;2023-03-23T14:32:02;25.60;39.40
22787;DHT22;63134;52.020;4.714;2023-03-23T14:34:48;26.40;38.60
22787;DHT22;63134;52.020;4.714;2023-03-23T14:37:33;27.10;37.50
22787;DHT22;63134;52.020;4.714;2023-03-23T14:40:19;28.00;35.40
22787;DHT22;63134;52.020;4.714;2023-03-23T14:43:04;28.20;34.70
22787;DHT22;63134;52.020;4.714;2023-03-23T14:45:52;28.30;34.70
22787;DHT22;63134;52.020;4.714;2023-03-23T14:48:38;28.20;35.10
22787;DHT22;63134;52.020;4.714;2023-03-23T14:51:23;27.60;34.90
22787;DHT22;63134;52.020;4.714;2023-03-23T14:54:08;28.00;35.20
22787;DHT22;63134;52.020;4.714;2023-03-23T14:56:52;28.10;35.00
22787;DHT22;63134;52.020;4.714;2023-03-23T14:59:38;26.70;36.50
22787;DHT22;63134;52.020;4.714;2023-03-23T15:02:33;27.10;37.60
22787;DHT22;63134;52.020;4.714;2023-03-23T15:05:28;27.00;37.10
22787;DHT22;63134;52.020;4.714;2023-03-23T15:08:27;26.50;37.20
22787;DHT22;63134;52.020;4.714;2023-03-23T15:17:02;25.50;39.10
22787;DHT22;63134;52.020;4.714;2023-03-23T15:19:46;24.00;42.60
22787;DHT22;63134;52.020;4.714;2023-03-23T15:22:32;23.40;44.30
22787;DHT22;63134;52.020;4.714;2023-03-23T15:25:30;23.30;45.60
22787;DHT22;63134;52.020;4.714;2023-03-23T15:28:27;23.00;45.80
22787;DHT22;63134;52.020;4.714;2023-03-23T15:31:12;24.20;44.60
22787;DHT22;63134;52.020;4.714;2023-03-23T15:34:01;23.90;43.60
22787;DHT22;63134;52.020;4.714;2023-03-23T15:36:58;24.40;45.40
22787;DHT22;63134;52.020;4.714;2023-03-23T15:39:44;24.90;42.90
22787;DHT22;63134;52.020;4.714;2023-03-23T15:42:33;24.10;43.70
22787;DHT22;63134;52.020;4.714;2023-03-23T15:45:27;24.00;45.60
22787;DHT22;63134;52.020;4.714;2023-03-23T15:48:15;24.80;44.30
22787;DHT22;63134;52.020;4.714;2023-03-23T15:51:02;25.00;42.20
22787;DHT22;63134;52.020;4.714;2023-03-23T15:53:48;24.60;44.10
22787;DHT22;63134;52.020;4.714;2023-03-23T15:56:33;24.80;43.30
22787;DHT22;63134;52.020;4.714;2023-03-23T15:59:18;24.60;43.80
22787;DHT22;63134;52.020;4.714;2023-03-23T16:02:04;25.30;42.90
22787;DHT22;63134;52.020;4.714;2023-03-23T16:04:50;25.60;41.70
22787;DHT22;63134;52.020;4.714;2023-03-23T16:07:36;25.70;40.80
22787;DHT22;63134;52.020;4.714;2023-03-23T16:10:23;24.80;41.60
22787;DHT22;63134;52.020;4.714;2023-03-23T16:13:09;24.20;43.10
22787;DHT22;63134;52.020;4.714;2023-03-23T16:15:55;23.10;45.10
22787;DHT22;63134;52.020;4.714;2023-03-23T16:18:43;22.00;47.20
22787;DHT22;63134;52.020;4.714;2023-03-23T16:21:28;21.20;48.70
22787;DHT22;63134;52.020;4.714;2023-03-23T16:24:16;20.70;49.90
22787;DHT22;63134;52.020;4.714;2023-03-23T16:27:02;20.20;51.20
22787;DHT22;63134;52.020;4.714;2023-03-23T16:29:47;19.80;52.40
22787;DHT22;63134;52.020;4.714;2023-03-23T16:32:51;19.30;53.40
22787;DHT22;63134;52.020;4.714;2023-03-23T16:35:40;18.90;54.50
22787;DHT22;63134;52.020;4.714;2023-03-23T16:38:28;18.60;55.30
22787;DHT22;63134;52.020;4.714;2023-03-23T16:41:13;18.40;56.10
22787;DHT22;63134;52.020;4.714;2023-03-23T16:43:58;18.30;56.80
22787;DHT22;63134;52.020;4.714;2023-03-23T16:46:44;18.00;57.10
22787;DHT22;63134;52.020;4.714;2023-03-23T16:49:30;17.90;58.00
22787;DHT22;63134;52.020;4.714;2023-03-23T16:52:15;17.70;58.50
22787;DHT22;63134;52.020;4.714;2023-03-23T16:55:01;17.50;59.30
22787;DHT22;63134;52.020;4.714;2023-03-23T16:57:46;17.40;60.20
22787;DHT22;63134;52.020;4.714;2023-03-23T17:00:32;17.20;61.00
22787;DHT22;63134;52.020;4.714;2023-03-23T17:03:19;17.20;62.10
22787;DHT22;63134;52.020;4.714;2023-03-23T17:06:05;17.00;62.80
22787;DHT22;63134;52.020;4.714;2023-03-23T17:08:51;16.90;63.50
22787;DHT22;63134;52.020;4.714;2023-03-23T17:11:42;16.80;64.00
22787;DHT22;63134;52.020;4.714;2023-03-23T17:14:27;16.60;64.60
22787;DHT22;63134;52.020;4.714;2023-03-23T17:17:13;16.10;69.50
22787;DHT22;63134;52.020;4.714;2023-03-23T17:19:58;15.80;72.20
22787;DHT22;63134;52.020;4.714;2023-03-23T17:22:44;15.80;72.70
22787;DHT22;63134;52.020;4.714;2023-03-23T17:25:29;15.80;73.30
22787;DHT22;63134;52.020;4.714;2023-03-23T17:28:16;15.70;73.80
22787;DHT22;63134;52.020;4.714;2023-03-23T17:31:07;15.80;73.80
22787;DHT22;63134;52.020;4.714;2023-03-23T17:33:53;15.70;73.90
22787;DHT22;63134;52.020;4.714;2023-03-23T17:36:38;15.80;74.30
22787;DHT22;63134;52.020;4.714;2023-03-23T17:39:24;15.70;74.50
22787;DHT22;63134;52.020;4.714;2023-03-23T17:42:10;15.60;75.20
22787;DHT22;63134;52.020;4.714;2023-03-23T17:44:55;15.60;75.60
22787;DHT22;63134;52.020;4.714;2023-03-23T17:47:41;15.50;76.20
22787;DHT22;63134;52.020;4.714;2023-03-23T17:50:27;15.50;76.60
22787;DHT22;63134;52.020;4.714;2023-03-23T17:53:12;15.60;76.80
22787;DHT22;63134;52.020;4.714;2023-03-23T17:55:58;15.50;77.30
22787;DHT22;63134;52.020;4.714;2023-03-23T17:58:46;15.50;77.40
22787;DHT22;63134;52.020;4.714;2023-03-23T18:01:32;15.50;78.40
22787;DHT22;63134;52.020;4.714;2023-03-23T18:04:17;15.50;78.00
22787;DHT22;63134;52.020;4.714;2023-03-23T18:07:03;15.50;78.10
22787;DHT22;63134;52.020;4.714;2023-03-23T18:09:49;15.50;78.40
22787;DHT22;63134;52.020;4.714;2023-03-23T18:12:34;15.50;78.70
22787;DHT22;63134;52.020;4.714;2023-03-23T18:15:22;15.50;80.10
22787;DHT22;63134;52.020;4.714;2023-03-23T18:18:13;15.50;79.60
22787;DHT22;63134;52.020;4.714;2023-03-23T18:21:09;15.50;79.50
22787;DHT22;63134;52.020;4.714;2023-03-23T18:23:55;15.40;80.30
22787;DHT22;63134;52.020;4.714;2023-03-23T18:26:44;15.20;81.90
22787;DHT22;63134;52.020;4.714;2023-03-23T18:29:30;15.10;83.10
22787;DHT22;63134;52.020;4.714;2023-03-23T18:32:15;15.00;84.10
22787;DHT22;63134;52.020;4.714;2023-03-23T18:35:01;14.90;85.10
22787;DHT22;63134;52.020;4.714;2023-03-23T18:37:48;14.80;86.20
22787;DHT22;63134;52.020;4.714;2023-03-23T18:40:35;14.70;87.00
22787;DHT22;63134;52.020;4.714;2023-03-23T18:43:21;14.70;88.00
22787;DHT22;63134;52.020;4.714;2023-03-23T18:46:07;14.60;88.80
22787;DHT22;63134;52.020;4.714;2023-03-23T18:48:53;14.60;89.50
22787;DHT22;63134;52.020;4.714;2023-03-23T18:51:44;14.60;89.50
22787;DHT22;63134;52.020;4.714;2023-03-23T18:54:30;14.50;89.80
22787;DHT22;63134;52.020;4.714;2023-03-23T18:57:19;14.40;90.30
22787;DHT22;63134;52.020;4.714;2023-03-23T19:00:07;14.40;90.50
22787;DHT22;63134;52.020;4.714;2023-03-23T19:02:52;14.40;90.70
22787;DHT22;63134;52.020;4.714;2023-03-23T19:05:40;14.40;90.50